KLXL

Little Falls / Morrison County-Lindbergh Field Airport

Little Falls, Minnesota, USA
METAR KLXL 170015Z AUTO 29006KT 10SM CLR 00/M07 A3018 RMK AO2
Observed Flight Rules
Dec-17 @ 00:15 UTC (8 minutes ago) Visual Flight Rules
Wind Visibility Clouds
290° at 6 knots 10 miles
  • Clear skies
Temperatures Readings
Current 0°C / 32°F
Dewpoint -7°C / 19°F
Humidity 60%
Altimeter 30.18" Hg
Pressure 1022 hPa
Elevation 342
METAR KLXL 170015Z AUTO 29006KT 10SM CLR 00/M07 A3018 RMK AO2
Observed Flight Rules
Dec-17 @ 00:15 UTC
(8 minutes ago)
VFR
Wind Visibility
290° at 6 knots 10 miles
Clouds
  • Clear skies
Temperature Dewpoint
0°C / 32°F -7°C / 19°F
Humidity Altimeter Pressure
60% 30.18" Hg 1022 hPa